Aviation Digital Data Service (ADDS)

Output produced by METARs form (1427 UTC 19 April 2019)
found at http://www.aviationweather.gov/metar/data/
 
Forecast for: GVNP (PRAIA INTL , CV)
Text: TAF GVNP 191100Z 1912/2018 02018KT 9999 FEW018
Forecast period: 1200 UTC 19 April 2019 to 1800 UTC 20 April 2019
Forecast type: FROM: standard forecast or significant change
Winds: from the NNE (20 degrees) at 21 MPH (18 knots; 9.3 m/s)
Visibility: 6 or more miles 10+ km)
Ceiling: at least 12,000 feet AGL
Clouds: few clouds at 1800 feet AGL
Weather: no significant weather forecast for this period
Text: TEMPO 2002/2007 01008KT
Forecast period: 0200 to 0700 UTC 20 April 2019
Forecast type: TEMPORARY: The following changes expected for less than half the time period
Winds: from the N (10 degrees) at 9 MPH (8 knots; 4.1 m/s)
Visibility: missing
Ceiling: unknown
Clouds: missing
Weather: no significant weather forecast for this period